sensor_id;sensor_type;location;lat;lon;timestamp;P1;durP1;ratioP1;P2;durP2;ratioP2
33453;SDS011;39400;49.744;7.012;2023-05-09T00:00:41;18.60;;;14.98;;
33453;SDS011;39400;49.744;7.012;2023-05-09T00:03:06;20.65;;;16.27;;
33453;SDS011;39400;49.744;7.012;2023-05-09T00:05:31;21.17;;;17.60;;
33453;SDS011;39400;49.744;7.012;2023-05-09T00:07:57;20.60;;;15.45;;
33453;SDS011;39400;49.744;7.012;2023-05-09T00:10:23;20.45;;;17.30;;
33453;SDS011;39400;49.744;7.012;2023-05-09T00:12:48;23.67;;;18.67;;
33453;SDS011;39400;49.744;7.012;2023-05-09T00:15:14;19.35;;;15.93;;
33453;SDS011;39400;49.744;7.012;2023-05-09T00:17:39;19.98;;;15.75;;
33453;SDS011;39400;49.744;7.012;2023-05-09T00:20:06;26.30;;;18.13;;
33453;SDS011;39400;49.744;7.012;2023-05-09T00:22:32;20.90;;;16.95;;
33453;SDS011;39400;49.744;7.012;2023-05-09T00:24:58;24.25;;;16.92;;
33453;SDS011;39400;49.744;7.012;2023-05-09T00:27:23;21.08;;;17.13;;
33453;SDS011;39400;49.744;7.012;2023-05-09T00:29:48;21.70;;;17.17;;
33453;SDS011;39400;49.744;7.012;2023-05-09T00:32:14;22.40;;;16.90;;
33453;SDS011;39400;49.744;7.012;2023-05-09T00:34:39;21.23;;;18.25;;
33453;SDS011;39400;49.744;7.012;2023-05-09T00:37:04;21.95;;;17.35;;
33453;SDS011;39400;49.744;7.012;2023-05-09T00:39:29;25.73;;;18.42;;
33453;SDS011;39400;49.744;7.012;2023-05-09T00:41:55;21.13;;;17.63;;
33453;SDS011;39400;49.744;7.012;2023-05-09T00:44:20;21.73;;;17.55;;
33453;SDS011;39400;49.744;7.012;2023-05-09T00:46:46;20.70;;;16.55;;
33453;SDS011;39400;49.744;7.012;2023-05-09T00:49:11;20.55;;;17.00;;
33453;SDS011;39400;49.744;7.012;2023-05-09T00:51:38;21.42;;;16.77;;
33453;SDS011;39400;49.744;7.012;2023-05-09T00:54:04;21.67;;;18.17;;
33453;SDS011;39400;49.744;7.012;2023-05-09T00:56:30;19.25;;;16.40;;
33453;SDS011;39400;49.744;7.012;2023-05-09T00:58:55;21.73;;;18.10;;
33453;SDS011;39400;49.744;7.012;2023-05-09T01:01:39;21.10;;;18.17;;
33453;SDS011;39400;49.744;7.012;2023-05-09T01:04:23;23.02;;;17.70;;
33453;SDS011;39400;49.744;7.012;2023-05-09T01:07:09;24.75;;;18.70;;
33453;SDS011;39400;49.744;7.012;2023-05-09T01:18:47;27.13;;;22.52;;
33453;SDS011;39400;49.744;7.012;2023-05-09T01:21:20;27.02;;;22.65;;
33453;SDS011;39400;49.744;7.012;2023-05-09T01:30:05;29.98;;;24.13;;
33453;SDS011;39400;49.744;7.012;2023-05-09T01:32:34;27.75;;;22.33;;
33453;SDS011;39400;49.744;7.012;2023-05-09T01:35:01;33.88;;;24.77;;
33453;SDS011;39400;49.744;7.012;2023-05-09T01:37:29;30.95;;;24.27;;
33453;SDS011;39400;49.744;7.012;2023-05-09T01:40:03;34.70;;;27.70;;
33453;SDS011;39400;49.744;7.012;2023-05-09T01:42:35;31.67;;;25.58;;
33453;SDS011;39400;49.744;7.012;2023-05-09T01:45:05;35.92;;;25.95;;
33453;SDS011;39400;49.744;7.012;2023-05-09T01:47:33;33.17;;;24.60;;
33453;SDS011;39400;49.744;7.012;2023-05-09T01:50:01;34.85;;;25.67;;
33453;SDS011;39400;49.744;7.012;2023-05-09T01:52:28;31.23;;;25.50;;
33453;SDS011;39400;49.744;7.012;2023-05-09T01:54:55;31.50;;;23.83;;
33453;SDS011;39400;49.744;7.012;2023-05-09T01:57:20;33.20;;;26.77;;
33453;SDS011;39400;49.744;7.012;2023-05-09T01:59:47;38.65;;;26.67;;
33453;SDS011;39400;49.744;7.012;2023-05-09T02:02:13;31.50;;;24.33;;
33453;SDS011;39400;49.744;7.012;2023-05-09T02:04:39;33.70;;;25.67;;
33453;SDS011;39400;49.744;7.012;2023-05-09T02:07:06;34.35;;;25.48;;
33453;SDS011;39400;49.744;7.012;2023-05-09T02:09:32;34.55;;;26.13;;
33453;SDS011;39400;49.744;7.012;2023-05-09T02:11:57;35.60;;;25.10;;
33453;SDS011;39400;49.744;7.012;2023-05-09T02:14:23;33.33;;;24.80;;
33453;SDS011;39400;49.744;7.012;2023-05-09T02:16:48;32.35;;;25.63;;
33453;SDS011;39400;49.744;7.012;2023-05-09T02:19:13;36.00;;;27.27;;
33453;SDS011;39400;49.744;7.012;2023-05-09T02:21:39;33.35;;;24.60;;
33453;SDS011;39400;49.744;7.012;2023-05-09T02:24:05;33.13;;;26.02;;
33453;SDS011;39400;49.744;7.012;2023-05-09T02:26:30;33.70;;;24.85;;
33453;SDS011;39400;49.744;7.012;2023-05-09T02:28:56;38.80;;;26.08;;
33453;SDS011;39400;49.744;7.012;2023-05-09T02:31:23;34.20;;;24.98;;
33453;SDS011;39400;49.744;7.012;2023-05-09T02:33:49;32.65;;;25.52;;
33453;SDS011;39400;49.744;7.012;2023-05-09T02:36:17;28.35;;;23.73;;
33453;SDS011;39400;49.744;7.012;2023-05-09T02:38:43;29.15;;;23.85;;
33453;SDS011;39400;49.744;7.012;2023-05-09T02:41:12;30.00;;;22.77;;
33453;SDS011;39400;49.744;7.012;2023-05-09T02:43:38;33.60;;;23.73;;
33453;SDS011;39400;49.744;7.012;2023-05-09T02:46:03;32.58;;;24.73;;
33453;SDS011;39400;49.744;7.012;2023-05-09T02:48:29;34.67;;;24.73;;
33453;SDS011;39400;49.744;7.012;2023-05-09T02:50:54;31.17;;;23.38;;
33453;SDS011;39400;49.744;7.012;2023-05-09T02:53:19;31.02;;;22.83;;
33453;SDS011;39400;49.744;7.012;2023-05-09T02:55:45;30.58;;;24.08;;
33453;SDS011;39400;49.744;7.012;2023-05-09T02:58:10;30.83;;;23.08;;
33453;SDS011;39400;49.744;7.012;2023-05-09T03:00:35;33.53;;;25.70;;
33453;SDS011;39400;49.744;7.012;2023-05-09T03:03:05;34.10;;;24.48;;
33453;SDS011;39400;49.744;7.012;2023-05-09T03:05:30;29.83;;;21.65;;
33453;SDS011;39400;49.744;7.012;2023-05-09T03:07:55;31.38;;;22.05;;
33453;SDS011;39400;49.744;7.012;2023-05-09T03:10:21;26.88;;;21.58;;
33453;SDS011;39400;49.744;7.012;2023-05-09T03:12:46;26.00;;;20.70;;
33453;SDS011;39400;49.744;7.012;2023-05-09T03:15:11;24.92;;;19.75;;
33453;SDS011;39400;49.744;7.012;2023-05-09T03:17:39;23.67;;;18.00;;
33453;SDS011;39400;49.744;7.012;2023-05-09T03:20:04;31.15;;;22.95;;
33453;SDS011;39400;49.744;7.012;2023-05-09T03:22:30;28.70;;;22.45;;
33453;SDS011;39400;49.744;7.012;2023-05-09T03:25:00;27.70;;;21.35;;
33453;SDS011;39400;49.744;7.012;2023-05-09T03:27:26;24.58;;;18.88;;
33453;SDS011;39400;49.744;7.012;2023-05-09T03:29:52;27.17;;;21.83;;
33453;SDS011;39400;49.744;7.012;2023-05-09T03:32:18;28.48;;;22.85;;
33453;SDS011;39400;49.744;7.012;2023-05-09T03:34:43;26.30;;;21.58;;
33453;SDS011;39400;49.744;7.012;2023-05-09T03:37:09;31.27;;;22.25;;
33453;SDS011;39400;49.744;7.012;2023-05-09T03:39:38;27.52;;;21.75;;
33453;SDS011;39400;49.744;7.012;2023-05-09T03:42:03;28.80;;;20.55;;
33453;SDS011;39400;49.744;7.012;2023-05-09T03:44:29;29.38;;;22.77;;
33453;SDS011;39400;49.744;7.012;2023-05-09T03:46:54;25.83;;;20.55;;
33453;SDS011;39400;49.744;7.012;2023-05-09T03:49:20;26.92;;;20.10;;
33453;SDS011;39400;49.744;7.012;2023-05-09T03:51:48;25.17;;;19.25;;
33453;SDS011;39400;49.744;7.012;2023-05-09T03:54:14;33.35;;;21.27;;
33453;SDS011;39400;49.744;7.012;2023-05-09T03:56:40;27.27;;;21.00;;
33453;SDS011;39400;49.744;7.012;2023-05-09T03:59:05;23.60;;;18.63;;
33453;SDS011;39400;49.744;7.012;2023-05-09T04:01:32;25.85;;;19.27;;
33453;SDS011;39400;49.744;7.012;2023-05-09T04:03:59;21.83;;;17.75;;
33453;SDS011;39400;49.744;7.012;2023-05-09T04:06:25;23.45;;;17.98;;
33453;SDS011;39400;49.744;7.012;2023-05-09T04:08:51;22.77;;;16.52;;
33453;SDS011;39400;49.744;7.012;2023-05-09T04:11:17;19.25;;;16.38;;
33453;SDS011;39400;49.744;7.012;2023-05-09T04:13:45;23.98;;;17.70;;
33453;SDS011;39400;49.744;7.012;2023-05-09T04:16:21;21.70;;;17.92;;
33453;SDS011;39400;49.744;7.012;2023-05-09T04:18:47;22.23;;;17.13;;
33453;SDS011;39400;49.744;7.012;2023-05-09T04:21:13;21.38;;;16.48;;
33453;SDS011;39400;49.744;7.012;2023-05-09T04:23:40;17.15;;;14.70;;
33453;SDS011;39400;49.744;7.012;2023-05-09T04:26:06;18.45;;;15.82;;
33453;SDS011;39400;49.744;7.012;2023-05-09T04:28:31;20.33;;;15.88;;
33453;SDS011;39400;49.744;7.012;2023-05-09T04:30:57;19.35;;;15.55;;
33453;SDS011;39400;49.744;7.012;2023-05-09T04:33:22;17.50;;;14.57;;
33453;SDS011;39400;49.744;7.012;2023-05-09T04:35:49;19.23;;;14.98;;
33453;SDS011;39400;49.744;7.012;2023-05-09T04:38:14;20.27;;;15.60;;
33453;SDS011;39400;49.744;7.012;2023-05-09T04:40:39;17.40;;;13.88;;
33453;SDS011;39400;49.744;7.012;2023-05-09T04:43:05;19.92;;;15.85;;
33453;SDS011;39400;49.744;7.012;2023-05-09T04:45:30;18.95;;;14.50;;
33453;SDS011;39400;49.744;7.012;2023-05-09T04:47:57;20.13;;;14.35;;
33453;SDS011;39400;49.744;7.012;2023-05-09T04:50:22;17.88;;;14.63;;
33453;SDS011;39400;49.744;7.012;2023-05-09T04:52:48;16.92;;;14.05;;
33453;SDS011;39400;49.744;7.012;2023-05-09T04:55:13;18.38;;;14.95;;
33453;SDS011;39400;49.744;7.012;2023-05-09T04:57:42;24.98;;;14.73;;
33453;SDS011;39400;49.744;7.012;2023-05-09T05:00:08;20.00;;;16.05;;
33453;SDS011;39400;49.744;7.012;2023-05-09T05:02:34;16.13;;;13.60;;
33453;SDS011;39400;49.744;7.012;2023-05-09T05:05:00;15.52;;;13.82;;
33453;SDS011;39400;49.744;7.012;2023-05-09T05:07:26;17.08;;;14.65;;
33453;SDS011;39400;49.744;7.012;2023-05-09T05:09:51;16.10;;;13.57;;
33453;SDS011;39400;49.744;7.012;2023-05-09T05:12:16;15.73;;;13.35;;
33453;SDS011;39400;49.744;7.012;2023-05-09T05:14:42;17.67;;;14.25;;
33453;SDS011;39400;49.744;7.012;2023-05-09T05:17:10;16.58;;;13.20;;
33453;SDS011;39400;49.744;7.012;2023-05-09T05:19:36;16.15;;;13.00;;
33453;SDS011;39400;49.744;7.012;2023-05-09T05:22:03;15.13;;;13.32;;
33453;SDS011;39400;49.744;7.012;2023-05-09T05:24:30;14.63;;;12.02;;
33453;SDS011;39400;49.744;7.012;2023-05-09T05:26:55;16.73;;;13.18;;
33453;SDS011;39400;49.744;7.012;2023-05-09T05:29:21;14.35;;;12.63;;
33453;SDS011;39400;49.744;7.012;2023-05-09T05:31:46;14.25;;;10.73;;
33453;SDS011;39400;49.744;7.012;2023-05-09T05:34:11;14.00;;;11.07;;
33453;SDS011;39400;49.744;7.012;2023-05-09T05:36:37;16.95;;;12.32;;
33453;SDS011;39400;49.744;7.012;2023-05-09T05:39:03;15.23;;;13.63;;
33453;SDS011;39400;49.744;7.012;2023-05-09T05:41:29;15.32;;;12.27;;
33453;SDS011;39400;49.744;7.012;2023-05-09T05:43:55;14.30;;;12.32;;
33453;SDS011;39400;49.744;7.012;2023-05-09T05:46:21;15.25;;;11.70;;
33453;SDS011;39400;49.744;7.012;2023-05-09T05:48:47;13.82;;;12.32;;
33453;SDS011;39400;49.744;7.012;2023-05-09T05:51:15;16.17;;;12.60;;
33453;SDS011;39400;49.744;7.012;2023-05-09T05:53:40;19.00;;;12.82;;
33453;SDS011;39400;49.744;7.012;2023-05-09T05:56:07;13.40;;;11.75;;
33453;SDS011;39400;49.744;7.012;2023-05-09T05:58:33;11.95;;;10.68;;
33453;SDS011;39400;49.744;7.012;2023-05-09T06:00:58;12.35;;;11.05;;
33453;SDS011;39400;49.744;7.012;2023-05-09T06:03:24;13.15;;;10.40;;
33453;SDS011;39400;49.744;7.012;2023-05-09T06:06:01;14.82;;;11.20;;
33453;SDS011;39400;49.744;7.012;2023-05-09T06:08:27;15.48;;;10.15;;
33453;SDS011;39400;49.744;7.012;2023-05-09T06:10:52;14.38;;;11.68;;
33453;SDS011;39400;49.744;7.012;2023-05-09T06:13:18;16.45;;;10.93;;
33453;SDS011;39400;49.744;7.012;2023-05-09T06:15:48;13.05;;;10.88;;
33453;SDS011;39400;49.744;7.012;2023-05-09T06:18:14;13.88;;;11.23;;
33453;SDS011;39400;49.744;7.012;2023-05-09T06:20:39;13.93;;;10.60;;
33453;SDS011;39400;49.744;7.012;2023-05-09T06:23:04;14.25;;;10.35;;
33453;SDS011;39400;49.744;7.012;2023-05-09T06:25:30;13.63;;;9.85;;
33453;SDS011;39400;49.744;7.012;2023-05-09T06:27:55;11.60;;;8.82;;
33453;SDS011;39400;49.744;7.012;2023-05-09T06:30:20;11.90;;;8.13;;
33453;SDS011;39400;49.744;7.012;2023-05-09T06:32:46;10.48;;;8.85;;
33453;SDS011;39400;49.744;7.012;2023-05-09T06:35:11;14.23;;;8.05;;
33453;SDS011;39400;49.744;7.012;2023-05-09T06:37:36;7.90;;;6.45;;
33453;SDS011;39400;49.744;7.012;2023-05-09T06:40:02;11.27;;;7.95;;
33453;SDS011;39400;49.744;7.012;2023-05-09T06:42:27;9.60;;;7.85;;
33453;SDS011;39400;49.744;7.012;2023-05-09T06:44:53;16.00;;;8.02;;
33453;SDS011;39400;49.744;7.012;2023-05-09T06:47:18;12.68;;;8.20;;
33453;SDS011;39400;49.744;7.012;2023-05-09T06:49:43;12.35;;;7.80;;
33453;SDS011;39400;49.744;7.012;2023-05-09T06:52:09;10.70;;;8.77;;
33453;SDS011;39400;49.744;7.012;2023-05-09T06:54:34;11.88;;;7.85;;
33453;SDS011;39400;49.744;7.012;2023-05-09T06:56:59;10.75;;;8.18;;
33453;SDS011;39400;49.744;7.012;2023-05-09T06:59:25;11.45;;;9.80;;
33453;SDS011;39400;49.744;7.012;2023-05-09T07:01:50;8.20;;;6.82;;
33453;SDS011;39400;49.744;7.012;2023-05-09T07:04:16;10.48;;;8.68;;
33453;SDS011;39400;49.744;7.012;2023-05-09T07:06:41;11.35;;;9.27;;
33453;SDS011;39400;49.744;7.012;2023-05-09T07:09:06;13.32;;;8.40;;
33453;SDS011;39400;49.744;7.012;2023-05-09T07:11:35;10.48;;;8.80;;
33453;SDS011;39400;49.744;7.012;2023-05-09T07:14:00;12.90;;;9.73;;
33453;SDS011;39400;49.744;7.012;2023-05-09T07:16:26;11.68;;;9.45;;
33453;SDS011;39400;49.744;7.012;2023-05-09T07:18:52;12.65;;;10.35;;
33453;SDS011;39400;49.744;7.012;2023-05-09T07:21:17;14.90;;;10.85;;
33453;SDS011;39400;49.744;7.012;2023-05-09T07:23:42;10.30;;;8.45;;
33453;SDS011;39400;49.744;7.012;2023-05-09T07:26:08;12.02;;;9.00;;
33453;SDS011;39400;49.744;7.012;2023-05-09T07:28:33;17.33;;;13.38;;
33453;SDS011;39400;49.744;7.012;2023-05-09T07:30:58;17.33;;;14.43;;
33453;SDS011;39400;49.744;7.012;2023-05-09T07:33:24;19.50;;;14.52;;
33453;SDS011;39400;49.744;7.012;2023-05-09T07:35:49;21.80;;;18.77;;
33453;SDS011;39400;49.744;7.012;2023-05-09T07:38:15;20.70;;;16.80;;
33453;SDS011;39400;49.744;7.012;2023-05-09T07:40:40;23.92;;;18.55;;
33453;SDS011;39400;49.744;7.012;2023-05-09T07:43:06;26.92;;;21.13;;
33453;SDS011;39400;49.744;7.012;2023-05-09T07:45:31;21.60;;;19.23;;
33453;SDS011;39400;49.744;7.012;2023-05-09T07:47:56;21.80;;;17.75;;
33453;SDS011;39400;49.744;7.012;2023-05-09T07:50:22;22.23;;;19.92;;
33453;SDS011;39400;49.744;7.012;2023-05-09T07:52:47;25.20;;;18.13;;
33453;SDS011;39400;49.744;7.012;2023-05-09T07:55:12;20.55;;;18.08;;
33453;SDS011;39400;49.744;7.012;2023-05-09T07:57:38;25.60;;;19.38;;
33453;SDS011;39400;49.744;7.012;2023-05-09T08:00:03;21.27;;;17.23;;
33453;SDS011;39400;49.744;7.012;2023-05-09T08:02:38;19.95;;;15.98;;
33453;SDS011;39400;49.744;7.012;2023-05-09T08:05:04;24.17;;;17.17;;
33453;SDS011;39400;49.744;7.012;2023-05-09T08:07:29;19.08;;;16.10;;
33453;SDS011;39400;49.744;7.012;2023-05-09T08:09:55;20.35;;;17.63;;
33453;SDS011;39400;49.744;7.012;2023-05-09T08:12:20;16.58;;;14.65;;
33453;SDS011;39400;49.744;7.012;2023-05-09T08:14:45;17.63;;;14.05;;
33453;SDS011;39400;49.744;7.012;2023-05-09T08:17:11;17.65;;;14.63;;
33453;SDS011;39400;49.744;7.012;2023-05-09T08:19:36;17.52;;;10.65;;
33453;SDS011;39400;49.744;7.012;2023-05-09T08:22:01;13.60;;;11.60;;
33453;SDS011;39400;49.744;7.012;2023-05-09T08:24:27;15.07;;;11.40;;
33453;SDS011;39400;49.744;7.012;2023-05-09T08:26:52;16.00;;;9.73;;
33453;SDS011;39400;49.744;7.012;2023-05-09T08:29:17;20.55;;;9.13;;
33453;SDS011;39400;49.744;7.012;2023-05-09T08:31:42;11.20;;;8.60;;
33453;SDS011;39400;49.744;7.012;2023-05-09T08:34:08;12.98;;;10.18;;
33453;SDS011;39400;49.744;7.012;2023-05-09T08:36:33;12.00;;;9.63;;
33453;SDS011;39400;49.744;7.012;2023-05-09T08:38:58;15.68;;;9.77;;
33453;SDS011;39400;49.744;7.012;2023-05-09T08:41:24;11.85;;;9.32;;
33453;SDS011;39400;49.744;7.012;2023-05-09T08:43:51;12.18;;;9.38;;
33453;SDS011;39400;49.744;7.012;2023-05-09T08:46:17;12.75;;;9.63;;
33453;SDS011;39400;49.744;7.012;2023-05-09T08:48:54;11.00;;;8.88;;
33453;SDS011;39400;49.744;7.012;2023-05-09T08:51:21;10.93;;;8.40;;
33453;SDS011;39400;49.744;7.012;2023-05-09T08:53:47;9.68;;;6.97;;
33453;SDS011;39400;49.744;7.012;2023-05-09T08:56:12;11.05;;;9.05;;
33453;SDS011;39400;49.744;7.012;2023-05-09T08:58:38;11.20;;;8.50;;
33453;SDS011;39400;49.744;7.012;2023-05-09T09:01:04;14.40;;;9.20;;
33453;SDS011;39400;49.744;7.012;2023-05-09T09:03:30;10.13;;;6.80;;
33453;SDS011;39400;49.744;7.012;2023-05-09T09:05:56;11.02;;;7.90;;
33453;SDS011;39400;49.744;7.012;2023-05-09T09:08:22;12.95;;;7.78;;
33453;SDS011;39400;49.744;7.012;2023-05-09T09:10:48;8.95;;;7.43;;
33453;SDS011;39400;49.744;7.012;2023-05-09T09:13:14;10.27;;;7.95;;
33453;SDS011;39400;49.744;7.012;2023-05-09T09:15:42;11.93;;;8.88;;
33453;SDS011;39400;49.744;7.012;2023-05-09T09:18:17;13.48;;;8.57;;
33453;SDS011;39400;49.744;7.012;2023-05-09T09:20:48;14.15;;;9.05;;
33453;SDS011;39400;49.744;7.012;2023-05-09T09:23:17;13.57;;;8.77;;
33453;SDS011;39400;49.744;7.012;2023-05-09T09:25:47;11.80;;;9.32;;
33453;SDS011;39400;49.744;7.012;2023-05-09T09:28:12;12.03;;;9.50;;
33453;SDS011;39400;49.744;7.012;2023-05-09T09:30:46;13.02;;;11.35;;
33453;SDS011;39400;49.744;7.012;2023-05-09T09:33:17;10.55;;;9.18;;
33453;SDS011;39400;49.744;7.012;2023-05-09T09:35:47;11.73;;;10.20;;
33453;SDS011;39400;49.744;7.012;2023-05-09T09:41:02;12.27;;;11.02;;
33453;SDS011;39400;49.744;7.012;2023-05-09T09:43:28;13.85;;;9.75;;
33453;SDS011;39400;49.744;7.012;2023-05-09T09:45:55;10.77;;;9.18;;
33453;SDS011;39400;49.744;7.012;2023-05-09T09:48:24;11.35;;;9.48;;
33453;SDS011;39400;49.744;7.012;2023-05-09T09:50:50;11.60;;;10.40;;
33453;SDS011;39400;49.744;7.012;2023-05-09T09:53:19;11.65;;;9.88;;
33453;SDS011;39400;49.744;7.012;2023-05-09T09:55:48;13.82;;;10.23;;
33453;SDS011;39400;49.744;7.012;2023-05-09T09:58:15;12.55;;;10.18;;
33453;SDS011;39400;49.744;7.012;2023-05-09T10:00:41;14.43;;;11.05;;
33453;SDS011;39400;49.744;7.012;2023-05-09T10:03:06;12.45;;;8.52;;
33453;SDS011;39400;49.744;7.012;2023-05-09T10:05:38;12.13;;;9.00;;
33453;SDS011;39400;49.744;7.012;2023-05-09T10:08:04;9.50;;;8.50;;
33453;SDS011;39400;49.744;7.012;2023-05-09T10:10:32;10.18;;;7.97;;
33453;SDS011;39400;49.744;7.012;2023-05-09T10:13:00;15.63;;;7.95;;
33453;SDS011;39400;49.744;7.012;2023-05-09T10:15:30;8.27;;;7.32;;
33453;SDS011;39400;49.744;7.012;2023-05-09T10:17:57;9.50;;;6.68;;
33453;SDS011;39400;49.744;7.012;2023-05-09T10:20:24;12.30;;;5.95;;
33453;SDS011;39400;49.744;7.012;2023-05-09T10:22:56;7.80;;;6.40;;
33453;SDS011;39400;49.744;7.012;2023-05-09T10:28:11;8.48;;;6.07;;
33453;SDS011;39400;49.744;7.012;2023-05-09T10:33:24;7.32;;;5.30;;
33453;SDS011;39400;49.744;7.012;2023-05-09T10:35:54;9.18;;;4.80;;
33453;SDS011;39400;49.744;7.012;2023-05-09T10:38:23;6.80;;;5.25;;
33453;SDS011;39400;49.744;7.012;2023-05-09T10:40:49;8.38;;;5.55;;
33453;SDS011;39400;49.744;7.012;2023-05-09T10:43:15;6.63;;;5.35;;
33453;SDS011;39400;49.744;7.012;2023-05-09T10:45:40;7.18;;;4.90;;
33453;SDS011;39400;49.744;7.012;2023-05-09T10:48:06;14.45;;;4.80;;
33453;SDS011;39400;49.744;7.012;2023-05-09T10:50:33;9.52;;;4.38;;
33453;SDS011;39400;49.744;7.012;2023-05-09T10:55:34;5.40;;;3.28;;
33453;SDS011;39400;49.744;7.012;2023-05-09T10:58:06;4.97;;;3.50;;
33453;SDS011;39400;49.744;7.012;2023-05-09T11:00:42;3.95;;;2.90;;
33453;SDS011;39400;49.744;7.012;2023-05-09T11:03:08;7.88;;;2.80;;
33453;SDS011;39400;49.744;7.012;2023-05-09T11:05:37;3.45;;;2.30;;
33453;SDS011;39400;49.744;7.012;2023-05-09T11:10:58;3.57;;;2.50;;
33453;SDS011;39400;49.744;7.012;2023-05-09T11:13:30;4.55;;;2.53;;
33453;SDS011;39400;49.744;7.012;2023-05-09T11:18:25;4.30;;;1.83;;
33453;SDS011;39400;49.744;7.012;2023-05-09T11:20:51;3.40;;;1.80;;
33453;SDS011;39400;49.744;7.012;2023-05-09T11:23:17;3.78;;;2.67;;
33453;SDS011;39400;49.744;7.012;2023-05-09T11:25:47;2.80;;;2.10;;
33453;SDS011;39400;49.744;7.012;2023-05-09T11:28:26;3.28;;;2.13;;
33453;SDS011;39400;49.744;7.012;2023-05-09T11:30:53;4.55;;;2.70;;
33453;SDS011;39400;49.744;7.012;2023-05-09T11:33:34;5.57;;;2.20;;
33453;SDS011;39400;49.744;7.012;2023-05-09T11:39:07;3.33;;;1.83;;
33453;SDS011;39400;49.744;7.012;2023-05-09T11:41:44;5.43;;;2.50;;
33453;SDS011;39400;49.744;7.012;2023-05-09T11:44:12;3.92;;;2.35;;
33453;SDS011;39400;49.744;7.012;2023-05-09T11:46:37;5.03;;;2.50;;
33453;SDS011;39400;49.744;7.012;2023-05-09T11:49:05;2.97;;;1.83;;
33453;SDS011;39400;49.744;7.012;2023-05-09T11:51:30;2.38;;;1.90;;
33453;SDS011;39400;49.744;7.012;2023-05-09T11:53:56;4.35;;;2.10;;
33453;SDS011;39400;49.744;7.012;2023-05-09T11:56:21;2.75;;;1.60;;
33453;SDS011;39400;49.744;7.012;2023-05-09T11:58:48;8.27;;;2.40;;
33453;SDS011;39400;49.744;7.012;2023-05-09T12:01:15;7.13;;;2.65;;
33453;SDS011;39400;49.744;7.012;2023-05-09T12:03:41;2.80;;;2.22;;
33453;SDS011;39400;49.744;7.012;2023-05-09T12:06:07;8.90;;;2.35;;
33453;SDS011;39400;49.744;7.012;2023-05-09T12:08:33;3.30;;;2.38;;
33453;SDS011;39400;49.744;7.012;2023-05-09T12:11:08;5.72;;;2.00;;
33453;SDS011;39400;49.744;7.012;2023-05-09T12:13:33;8.27;;;2.22;;
33453;SDS011;39400;49.744;7.012;2023-05-09T12:15:59;4.68;;;1.70;;
33453;SDS011;39400;49.744;7.012;2023-05-09T12:18:25;2.65;;;1.90;;
33453;SDS011;39400;49.744;7.012;2023-05-09T12:20:50;4.88;;;2.10;;
33453;SDS011;39400;49.744;7.012;2023-05-09T12:23:16;7.20;;;2.45;;
33453;SDS011;39400;49.744;7.012;2023-05-09T12:25:46;3.15;;;1.95;;
33453;SDS011;39400;49.744;7.012;2023-05-09T12:28:21;4.10;;;2.50;;
33453;SDS011;39400;49.744;7.012;2023-05-09T12:30:48;2.50;;;1.83;;
33453;SDS011;39400;49.744;7.012;2023-05-09T12:33:15;3.38;;;2.15;;
33453;SDS011;39400;49.744;7.012;2023-05-09T12:35:44;4.50;;;2.03;;
33453;SDS011;39400;49.744;7.012;2023-05-09T12:38:13;5.22;;;2.38;;
33453;SDS011;39400;49.744;7.012;2023-05-09T12:40:46;6.22;;;2.53;;
33453;SDS011;39400;49.744;7.012;2023-05-09T12:43:12;6.00;;;2.45;;
33453;SDS011;39400;49.744;7.012;2023-05-09T12:45:37;6.35;;;2.53;;
33453;SDS011;39400;49.744;7.012;2023-05-09T12:48:03;5.55;;;1.95;;
33453;SDS011;39400;49.744;7.012;2023-05-09T12:50:31;2.58;;;2.00;;
33453;SDS011;39400;49.744;7.012;2023-05-09T12:52:57;3.45;;;2.08;;
33453;SDS011;39400;49.744;7.012;2023-05-09T12:55:26;4.88;;;1.75;;
33453;SDS011;39400;49.744;7.012;2023-05-09T12:57:58;2.88;;;1.73;;
33453;SDS011;39400;49.744;7.012;2023-05-09T13:00:24;6.70;;;2.22;;
33453;SDS011;39400;49.744;7.012;2023-05-09T13:02:49;3.72;;;2.08;;
33453;SDS011;39400;49.744;7.012;2023-05-09T13:05:18;6.30;;;2.38;;
33453;SDS011;39400;49.744;7.012;2023-05-09T13:08:22;4.15;;;2.03;;
33453;SDS011;39400;49.744;7.012;2023-05-09T13:10:48;1.95;;;1.58;;
33453;SDS011;39400;49.744;7.012;2023-05-09T13:13:16;2.67;;;1.88;;
33453;SDS011;39400;49.744;7.012;2023-05-09T13:15:43;2.35;;;1.75;;
33453;SDS011;39400;49.744;7.012;2023-05-09T13:18:09;2.67;;;1.90;;
33453;SDS011;39400;49.744;7.012;2023-05-09T13:20:35;2.67;;;2.00;;
33453;SDS011;39400;49.744;7.012;2023-05-09T13:23:00;6.05;;;2.05;;
33453;SDS011;39400;49.744;7.012;2023-05-09T13:25:26;4.65;;;1.50;;
33453;SDS011;39400;49.744;7.012;2023-05-09T13:27:51;2.08;;;1.60;;
33453;SDS011;39400;49.744;7.012;2023-05-09T13:30:17;6.30;;;2.10;;
33453;SDS011;39400;49.744;7.012;2023-05-09T13:32:42;3.15;;;2.05;;
33453;SDS011;39400;49.744;7.012;2023-05-09T13:35:08;3.50;;;2.10;;
33453;SDS011;39400;49.744;7.012;2023-05-09T13:37:33;7.32;;;2.20;;
33453;SDS011;39400;49.744;7.012;2023-05-09T13:39:59;2.00;;;1.80;;
33453;SDS011;39400;49.744;7.012;2023-05-09T13:42:24;1.80;;;1.42;;
33453;SDS011;39400;49.744;7.012;2023-05-09T13:44:50;4.72;;;1.85;;
33453;SDS011;39400;49.744;7.012;2023-05-09T13:47:15;4.22;;;2.40;;
33453;SDS011;39400;49.744;7.012;2023-05-09T13:49:40;3.35;;;1.85;;
33453;SDS011;39400;49.744;7.012;2023-05-09T13:52:05;4.03;;;1.90;;
33453;SDS011;39400;49.744;7.012;2023-05-09T13:54:31;3.83;;;2.58;;
33453;SDS011;39400;49.744;7.012;2023-05-09T13:56:56;6.70;;;2.60;;
33453;SDS011;39400;49.744;7.012;2023-05-09T13:59:21;3.47;;;2.13;;
33453;SDS011;39400;49.744;7.012;2023-05-09T14:01:47;3.42;;;2.50;;
33453;SDS011;39400;49.744;7.012;2023-05-09T14:04:12;3.67;;;2.50;;
33453;SDS011;39400;49.744;7.012;2023-05-09T14:06:37;4.07;;;2.70;;
33453;SDS011;39400;49.744;7.012;2023-05-09T14:09:03;5.47;;;2.45;;
33453;SDS011;39400;49.744;7.012;2023-05-09T14:11:28;8.85;;;2.42;;
33453;SDS011;39400;49.744;7.012;2023-05-09T14:13:53;5.70;;;2.50;;
33453;SDS011;39400;49.744;7.012;2023-05-09T14:16:19;4.15;;;2.85;;
33453;SDS011;39400;49.744;7.012;2023-05-09T14:18:45;7.78;;;3.08;;
33453;SDS011;39400;49.744;7.012;2023-05-09T14:21:10;4.75;;;2.80;;
33453;SDS011;39400;49.744;7.012;2023-05-09T14:23:35;3.08;;;2.50;;
33453;SDS011;39400;49.744;7.012;2023-05-09T14:26:01;5.85;;;2.90;;
33453;SDS011;39400;49.744;7.012;2023-05-09T14:28:26;9.32;;;3.40;;
33453;SDS011;39400;49.744;7.012;2023-05-09T14:30:51;5.50;;;3.85;;
33453;SDS011;39400;49.744;7.012;2023-05-09T14:33:17;12.30;;;5.38;;
33453;SDS011;39400;49.744;7.012;2023-05-09T14:35:42;9.48;;;5.32;;
33453;SDS011;39400;49.744;7.012;2023-05-09T14:38:07;9.40;;;5.03;;
33453;SDS011;39400;49.744;7.012;2023-05-09T14:40:32;5.82;;;4.00;;
33453;SDS011;39400;49.744;7.012;2023-05-09T14:42:58;8.18;;;4.50;;
33453;SDS011;39400;49.744;7.012;2023-05-09T14:45:24;12.68;;;5.35;;
33453;SDS011;39400;49.744;7.012;2023-05-09T14:47:49;9.07;;;4.60;;
33453;SDS011;39400;49.744;7.012;2023-05-09T14:50:14;10.43;;;4.68;;
33453;SDS011;39400;49.744;7.012;2023-05-09T14:52:40;8.70;;;4.80;;
33453;SDS011;39400;49.744;7.012;2023-05-09T14:55:06;7.38;;;5.07;;
33453;SDS011;39400;49.744;7.012;2023-05-09T14:57:32;5.07;;;3.88;;
33453;SDS011;39400;49.744;7.012;2023-05-09T14:59:57;5.90;;;3.70;;
33453;SDS011;39400;49.744;7.012;2023-05-09T15:02:23;6.22;;;4.50;;